Maersk Iowa — KABL — position and weather

sailwx.info

Track history (hours):
 
Tides and Currents Weather Stations Pressure Air Temp Water Temp Dewpoint Dewpoint Depression Visibility Wind Speed Wind Dir Waves Ship Positions

Maersk Iowa

Owner: FARRELL LINES INC, Norfolk, VA. More information available from US FCC via Universal Licensing System and Coast Guard Vessel Documentation Center.

Last reported at 2014-Oct-29 19:33 UTC. Time now 2014-Oct-30 22:52 UTC.
Position N 34°27' W 075°50'.

Length 292 m; draft 9.6 m.

Type: Ship (hazmat cat A). MMSI: 367606000.

Date/timePositionNaut miles runAvg speedWind from/ knotsBaromVisibWave heightAir tempDewpointWater temp
2014-Oct-29 19:33N 34°27' W 075°50'19814.6
2014-Oct-29 06:00N 32°36' W 079°06'41 1.7 200 / 101018.510.8 0.522.017.224.7
2014-Oct-28 06:00N 32°00' W 079°30'25221.0 999 / 21019.010.8 24.019.425.5
2014-Oct-27 18:00N 27°48' W 079°42'6321.8 050 / 121017.810.8 1.027.017.528.5
2014-Oct-27 15:05N 26°45' W 079°53'1221.9
2014-Oct-27 14:33N 26°34' W 079°54'2323.0
2014-Oct-27 13:33N 26°11' W 079°55'2323.0
2014-Oct-27 12:33N 25°48' W 079°56'13620.7
2014-Oct-27 06:00N 24°12' W 081°42'   060 / 171014.910.8 1.525.015.128.5
2014-Oct-24 08:33N 29°20' W 094°46'2 0.2
2014-Oct-23 23:07N 29°19' W 094°47'0 0.0
2014-Oct-23 21:13N 29°19' W 094°47'0 0.0
2014-Oct-23 18:07N 29°19' W 094°47'0 0.0
2014-Oct-23 11:19N 29°19' W 094°47'0 0.0
2014-Oct-23 08:25N 29°19' W 094°47'0 0.0
2014-Oct-23 06:07N 29°19' W 094°47'0 0.0
2014-Oct-22 14:19N 29°19' W 094°47'0 0.0
2014-Oct-22 13:31N 29°19' W 094°47'0 0.0
2014-Oct-22 10:25N 29°19' W 094°47'0 0.0
2014-Oct-22 09:24N 29°19' W 094°47'2 1.8
2014-Oct-22 08:33N 29°20' W 094°46'5 4.6
2014-Oct-22 07:28N 29°25' W 094°49'1213.3
2014-Oct-22 06:33N 29°35' W 094°56'7 6.8
2014-Oct-22 05:33N 29°41' W 095°00'0 0.0
2014-Oct-22 04:32N 29°41' W 095°00'0 0.0
2014-Oct-22 03:32N 29°41' W 095°00'0 0.0
2014-Oct-22 02:32N 29°41' W 095°00'0 0.0
2014-Oct-22 01:32N 29°41' W 095°00'0 0.0
2014-Oct-22 00:29N 29°41' W 095°00'0 0.0
2014-Oct-21 23:29N 29°41' W 095°00'0 0.0
2014-Oct-21 22:32N 29°41' W 095°00'0 0.0
2014-Oct-21 21:32N 29°41' W 095°00'0 0.0
2014-Oct-21 20:32N 29°41' W 095°00'0 0.0
2014-Oct-21 19:32N 29°41' W 095°00'0 0.0
2014-Oct-21 18:32N 29°41' W 095°00'0 0.0
2014-Oct-21 17:32N 29°41' W 095°00'0 0.0
2014-Oct-21 16:32N 29°41' W 095°00'0 0.0
2014-Oct-21 15:29N 29°41' W 095°00'0 0.0
2014-Oct-21 14:29N 29°41' W 095°00'0 0.0
2014-Oct-21 13:32N 29°41' W 095°00'0 0.0
2014-Oct-21 12:32N 29°41' W 095°00'5 4.7
2014-Oct-21 11:33N 29°37' W 094°57'1211.7
2014-Oct-21 10:33N 29°27' W 094°51'1211.7
2014-Oct-21 09:34N 29°20' W 094°40'11 7.3
2014-Oct-21 08:04N 29°14' W 094°30'21626.7
2014-Oct-21 00:00N 26°00' W 092°42'11619.3 050 / 151013.510.8 1.527.019.328.0
2014-Oct-20 18:00N 27°18' W 091°06'20817.4 100 / 121014.510.8 1.028.018.729.0
2014-Oct-20 06:00N 26°00' W 087°30'   090 / 101015.010.8 1.525.017.029.6
Track history (hours):
 
Tides and Currents Weather Stations Pressure Air Temp Water Temp Dewpoint Dewpoint Depression Visibility Wind Speed Wind Dir Waves Ship Positions

Maersk Iowa

Owner: FARRELL LINES INC, Norfolk, VA. More information available from US FCC via Universal Licensing System and Coast Guard Vessel Documentation Center.

Last reported at 2014-Oct-29 19:33 UTC. Time now 2014-Oct-30 22:52 UTC.
Position N 34°27' W 075°50'.

Length 292 m; draft 9.6 m.

Type: Ship (hazmat cat A). MMSI: 367606000.

Date/timePositionNaut miles runAvg speedWind from/ knotsBaromVisibWave heightAir tempDewpointWater temp
2014-Oct-29 19:33N 34°27' W 075°50'19814.6
2014-Oct-29 06:00N 32°36' W 079°06'41 1.7 200 / 101018.510.8 0.522.017.224.7
2014-Oct-28 06:00N 32°00' W 079°30'25221.0 999 / 21019.010.8 24.019.425.5
2014-Oct-27 18:00N 27°48' W 079°42'6321.8 050 / 121017.810.8 1.027.017.528.5
2014-Oct-27 15:05N 26°45' W 079°53'1221.9
2014-Oct-27 14:33N 26°34' W 079°54'2323.0
2014-Oct-27 13:33N 26°11' W 079°55'2323.0
2014-Oct-27 12:33N 25°48' W 079°56'13620.7
2014-Oct-27 06:00N 24°12' W 081°42'   060 / 171014.910.8 1.525.015.128.5
2014-Oct-24 08:33N 29°20' W 094°46'2 0.2
2014-Oct-23 23:07N 29°19' W 094°47'0 0.0
2014-Oct-23 21:13N 29°19' W 094°47'0 0.0
2014-Oct-23 18:07N 29°19' W 094°47'0 0.0
2014-Oct-23 11:19N 29°19' W 094°47'0 0.0
2014-Oct-23 08:25N 29°19' W 094°47'0 0.0
2014-Oct-23 06:07N 29°19' W 094°47'0 0.0
2014-Oct-22 14:19N 29°19' W 094°47'0 0.0
2014-Oct-22 13:31N 29°19' W 094°47'0 0.0
2014-Oct-22 10:25N 29°19' W 094°47'0 0.0
2014-Oct-22 09:24N 29°19' W 094°47'2 1.8
2014-Oct-22 08:33N 29°20' W 094°46'5 4.6
2014-Oct-22 07:28N 29°25' W 094°49'1213.3
2014-Oct-22 06:33N 29°35' W 094°56'7 6.8
2014-Oct-22 05:33N 29°41' W 095°00'0 0.0
2014-Oct-22 04:32N 29°41' W 095°00'0 0.0
2014-Oct-22 03:32N 29°41' W 095°00'0 0.0
2014-Oct-22 02:32N 29°41' W 095°00'0 0.0
2014-Oct-22 01:32N 29°41' W 095°00'0 0.0
2014-Oct-22 00:29N 29°41' W 095°00'0 0.0
2014-Oct-21 23:29N 29°41' W 095°00'0 0.0
2014-Oct-21 22:32N 29°41' W 095°00'0 0.0
2014-Oct-21 21:32N 29°41' W 095°00'0 0.0
2014-Oct-21 20:32N 29°41' W 095°00'0 0.0
2014-Oct-21 19:32N 29°41' W 095°00'0 0.0
2014-Oct-21 18:32N 29°41' W 095°00'0 0.0
2014-Oct-21 17:32N 29°41' W 095°00'0 0.0
2014-Oct-21 16:32N 29°41' W 095°00'0 0.0
2014-Oct-21 15:29N 29°41' W 095°00'0 0.0
2014-Oct-21 14:29N 29°41' W 095°00'0 0.0
2014-Oct-21 13:32N 29°41' W 095°00'0 0.0
2014-Oct-21 12:32N 29°41' W 095°00'5 4.7
2014-Oct-21 11:33N 29°37' W 094°57'1211.7
2014-Oct-21 10:33N 29°27' W 094°51'1211.7
2014-Oct-21 09:34N 29°20' W 094°40'11 7.3
2014-Oct-21 08:04N 29°14' W 094°30'21626.7
2014-Oct-21 00:00N 26°00' W 092°42'11619.3 050 / 151013.510.8 1.527.019.328.0
2014-Oct-20 18:00N 27°18' W 091°06'20817.4 100 / 121014.510.8 1.028.018.729.0
2014-Oct-20 06:00N 26°00' W 087°30'   090 / 101015.010.8 1.525.017.029.6

Dump ship's entire track history